createdAt,value
2022-08-22T00:02:06.107Z,94.27
2022-08-22T00:05:13.605Z,94.43
2022-08-22T00:08:36.381Z,94.48
2022-08-22T00:11:47.155Z,94.68
2022-08-22T00:14:51.742Z,94.95
2022-08-22T00:18:22.955Z,94.72
2022-08-22T00:21:58.600Z,95.07
2022-08-22T00:25:25.733Z,95.14
2022-08-22T00:28:39.174Z,95.39
2022-08-22T00:31:48.734Z,95.41
2022-08-22T00:35:01.614Z,95.28
2022-08-22T00:38:17.296Z,95.52
2022-08-22T00:41:47.560Z,95.75
2022-08-22T00:45:02.208Z,96.14
2022-08-22T00:48:22.177Z,95.90
2022-08-22T00:51:54.681Z,96.27
2022-08-22T00:55:02.318Z,96.08
2022-08-22T00:58:34.048Z,96.07
2022-08-22T01:01:52.646Z,96.68
2022-08-22T01:05:44.512Z,96.58
2022-08-22T01:09:04.181Z,96.09
2022-08-22T01:12:17.455Z,96.21
2022-08-22T01:15:26.973Z,96.55
2022-08-22T01:18:56.613Z,96.76
2022-08-22T01:22:26.220Z,96.75
2022-08-22T01:26:11.118Z,97.35
2022-08-22T01:30:12.470Z,97.30
2022-08-22T01:33:52.576Z,97.31
2022-08-22T01:37:28.529Z,97.38
2022-08-22T01:40:36.173Z,97.57
2022-08-22T01:44:02.324Z,97.15
2022-08-22T01:47:12.190Z,97.18
2022-08-22T01:50:36.802Z,96.74
2022-08-22T01:53:45.402Z,96.38
2022-08-22T01:56:47.406Z,96.34
2022-08-22T01:59:55.304Z,96.22
2022-08-22T02:03:21.616Z,96.28
2022-08-22T02:06:35.825Z,96.71
2022-08-22T02:09:46.525Z,96.63
2022-08-22T02:12:55.220Z,97.14
2022-08-22T02:16:16.920Z,96.85
2022-08-22T02:19:32.082Z,96.89
2022-08-22T02:22:53.190Z,96.93
2022-08-22T02:26:01.171Z,96.94
2022-08-22T02:29:12.385Z,96.56
2022-08-22T02:32:29.431Z,96.87
2022-08-22T02:35:38.594Z,96.76
2022-08-22T02:39:03.122Z,97.00
2022-08-22T02:42:25.985Z,96.95
2022-08-22T02:45:44.869Z,97.20
2022-08-22T02:49:13.555Z,97.16
2022-08-22T02:52:32.287Z,96.77
2022-08-22T02:55:44.136Z,96.43
2022-08-22T02:59:11.806Z,96.70
2022-08-22T03:02:36.011Z,96.33
2022-08-22T03:05:37.635Z,96.65
2022-08-22T03:09:20.600Z,96.49
2022-08-22T03:12:47.157Z,96.73
2022-08-22T03:15:56.527Z,96.57
2022-08-22T03:19:30.439Z,96.39
2022-08-22T03:23:00.160Z,96.18
2022-08-22T03:26:13.734Z,96.05
2022-08-22T03:29:25.251Z,96.18
2022-08-22T03:33:12.745Z,96.17
2022-08-22T03:36:14.533Z,96.28
2022-08-22T03:39:35.555Z,96.56
2022-08-22T03:42:53.784Z,96.96
2022-08-22T03:46:27.811Z,96.76
2022-08-22T03:49:59.230Z,97.08
2022-08-22T03:53:23.202Z,96.80
2022-08-22T03:57:02.016Z,96.98
2022-08-22T04:00:19.797Z,97.09
2022-08-22T04:03:57.037Z,97.17
2022-08-22T04:07:33.267Z,97.40
2022-08-22T04:11:02.685Z,97.70
2022-08-22T04:14:44.081Z,97.75
2022-08-22T04:17:58.155Z,97.44
2022-08-22T04:21:31.360Z,97.95
2022-08-22T04:25:18.403Z,98.42
2022-08-22T04:28:34.675Z,98.33
2022-08-22T04:31:47.977Z,98.51
2022-08-22T04:35:06.960Z,99.35
2022-08-22T04:38:29.709Z,99.77
2022-08-22T04:41:49.857Z,99.94
2022-08-22T04:44:56.102Z,100.00
2022-08-22T04:48:08.315Z,100.00
2022-08-22T04:51:30.855Z,100.00
2022-08-22T04:55:08.231Z,100.00
2022-08-22T04:58:22.107Z,100.00
2022-08-22T05:01:40.006Z,100.00
2022-08-22T05:04:48.023Z,100.00
2022-08-22T05:08:04.334Z,100.00
2022-08-22T05:11:09.629Z,100.00
2022-08-22T05:14:27.817Z,99.82
2022-08-22T05:17:42.062Z,100.00
2022-08-22T05:20:49.236Z,100.00
2022-08-22T05:24:08.627Z,99.78
2022-08-22T05:27:28.783Z,100.00
2022-08-22T05:30:33.757Z,100.00
2022-08-22T05:33:51.463Z,99.95
2022-08-22T05:37:03.487Z,99.38
2022-08-22T05:40:25.794Z,99.27
2022-08-22T05:43:28.637Z,98.50
2022-08-22T05:46:48.076Z,98.79
2022-08-22T05:50:18.281Z,98.67
2022-08-22T05:53:32.199Z,98.60
2022-08-22T05:56:45.596Z,98.85
2022-08-22T05:59:52.283Z,98.60
2022-08-22T06:03:15.851Z,98.51
2022-08-22T06:06:20.843Z,98.44
2022-08-22T06:09:35.502Z,97.93
2022-08-22T06:12:44.186Z,97.72
2022-08-22T06:15:58.599Z,97.70
2022-08-22T06:19:19.238Z,97.54
2022-08-22T06:22:31.665Z,96.75
2022-08-22T06:25:53.651Z,97.13
2022-08-22T06:29:00.614Z,96.80
2022-08-22T06:32:44.345Z,96.95
2022-08-22T06:36:11.289Z,96.12
2022-08-22T06:39:30.337Z,96.76
2022-08-22T06:42:33.916Z,96.38
2022-08-22T06:45:39.295Z,96.33
2022-08-22T06:48:41.603Z,96.20
2022-08-22T06:51:48.095Z,95.85
2022-08-22T06:54:58.192Z,95.72
2022-08-22T06:58:38.507Z,95.56
2022-08-22T07:01:53.867Z,95.50
2022-08-22T07:04:56.041Z,95.36
2022-08-22T07:07:58.166Z,94.35
2022-08-22T07:11:21.929Z,93.25
2022-08-22T07:14:35.812Z,92.91
2022-08-22T07:17:53.743Z,92.02
2022-08-22T07:21:14.507Z,91.88
2022-08-22T07:24:30.508Z,91.18
2022-08-22T07:28:15.922Z,90.47
2022-08-22T07:32:04.565Z,88.42
2022-08-22T07:35:31.431Z,87.32
2022-08-22T07:38:43.841Z,86.68
2022-08-22T07:42:02.352Z,84.97
2022-08-22T07:45:10.506Z,83.58
2022-08-22T07:48:25.383Z,83.75
2022-08-22T07:51:54.020Z,81.51
2022-08-22T07:55:09.548Z,81.13
2022-08-22T07:58:13.760Z,80.81
2022-08-22T08:01:26.465Z,78.41
2022-08-22T08:04:40.042Z,76.58
2022-08-22T08:07:45.651Z,76.03
2022-08-22T08:10:50.770Z,75.42
2022-08-22T08:14:00.850Z,72.55
2022-08-22T08:17:13.391Z,73.09
2022-08-22T08:20:22.606Z,72.70
2022-08-22T08:23:26.660Z,70.95
2022-08-22T08:26:38.443Z,68.64
2022-08-22T08:29:55.390Z,68.75
2022-08-22T08:33:25.349Z,67.88
2022-08-22T08:36:53.324Z,66.53
2022-08-22T08:39:59.388Z,67.08
2022-08-22T08:43:23.083Z,66.29
2022-08-22T08:46:59.536Z,61.96
2022-08-22T08:50:10.511Z,62.45
2022-08-22T08:53:43.377Z,61.17
2022-08-22T08:56:49.741Z,60.40
2022-08-22T09:00:17.824Z,58.25
2022-08-22T09:03:43.962Z,60.50
2022-08-22T09:06:56.761Z,59.23
2022-08-22T09:10:22.150Z,60.18
2022-08-22T09:14:01.738Z,59.07
2022-08-22T09:17:11.867Z,58.34
2022-08-22T09:29:55.178Z,57.58
2022-08-22T09:33:15.114Z,57.92
2022-08-22T09:36:52.428Z,55.47
2022-08-22T09:44:33.842Z,54.47
2022-08-22T09:48:18.404Z,53.57
2022-08-22T09:51:52.420Z,53.35
2022-08-22T09:55:16.885Z,52.55
2022-08-22T09:58:49.670Z,51.30
2022-08-22T10:02:06.053Z,51.53
2022-08-22T10:05:40.592Z,52.06
2022-08-22T10:09:09.081Z,51.18
2022-08-22T10:12:19.534Z,51.59
2022-08-22T10:15:42.733Z,51.20
2022-08-22T10:19:22.868Z,51.40
2022-08-22T10:22:36.521Z,51.68
2022-08-22T10:25:42.975Z,51.87
2022-08-22T10:28:56.534Z,50.14
2022-08-22T10:32:14.597Z,50.20
2022-08-22T10:35:39.186Z,49.59
2022-08-22T10:38:52.436Z,49.93
2022-08-22T10:42:35.151Z,47.90
2022-08-22T10:45:47.059Z,48.30
2022-08-22T10:48:54.432Z,48.48
2022-08-22T10:52:15.689Z,48.96
2022-08-22T10:55:27.440Z,47.82
2022-08-22T10:58:37.090Z,48.17
2022-08-22T11:01:52.482Z,47.58
2022-08-22T11:05:25.972Z,47.00
2022-08-22T11:09:07.979Z,44.61
2022-08-22T11:12:35.220Z,45.97
2022-08-22T11:16:01.361Z,45.20
2022-08-22T11:19:23.497Z,44.60
2022-08-22T11:22:29.377Z,45.37
2022-08-22T11:25:42.219Z,44.61
2022-08-22T11:29:13.167Z,43.95
2022-08-22T11:32:25.786Z,44.65
2022-08-22T11:35:34.218Z,44.44
2022-08-22T11:38:58.474Z,44.46
2022-08-22T11:42:14.316Z,45.11
2022-08-22T11:45:24.034Z,45.26
2022-08-22T11:48:31.392Z,45.58
2022-08-22T11:52:07.246Z,45.47
2022-08-22T11:55:27.565Z,43.92
2022-08-22T11:58:40.869Z,44.50
2022-08-22T12:02:01.275Z,42.93
2022-08-22T12:05:20.243Z,43.43
2022-08-22T12:08:38.270Z,43.20
2022-08-22T12:12:17.151Z,43.07
2022-08-22T12:15:53.857Z,43.01
2022-08-22T12:19:23.060Z,43.02
2022-08-22T12:23:17.129Z,43.57
2022-08-22T12:26:45.164Z,43.45
2022-08-22T12:30:13.767Z,43.12
2022-08-22T12:33:28.175Z,42.70
2022-08-22T12:36:46.286Z,41.31
2022-08-22T12:40:04.626Z,42.10
2022-08-22T12:43:43.962Z,41.30
2022-08-22T12:47:04.332Z,40.55
2022-08-22T12:50:26.647Z,41.32
2022-08-22T12:53:51.205Z,41.05
2022-08-22T12:56:53.886Z,42.28
2022-08-22T13:00:34.841Z,41.47
2022-08-22T13:03:57.321Z,40.90
2022-08-22T13:07:26.819Z,41.34
2022-08-22T13:11:10.048Z,40.78
2022-08-22T13:14:25.645Z,40.38
2022-08-22T13:17:31.503Z,40.99
2022-08-22T13:20:37.547Z,39.94
2022-08-22T13:23:50.861Z,40.26
2022-08-22T13:26:59.862Z,40.43
2022-08-22T13:30:30.223Z,39.36
2022-08-22T13:33:36.120Z,40.16
2022-08-22T13:36:52.112Z,39.53
2022-08-22T13:40:01.960Z,39.06
2022-08-22T13:43:09.985Z,38.48
2022-08-22T13:46:13.087Z,38.47
2022-08-22T13:49:24.908Z,36.35
2022-08-22T13:52:38.139Z,36.96
2022-08-22T13:55:49.919Z,36.40
2022-08-22T13:59:01.579Z,36.50
2022-08-22T14:02:15.205Z,36.23
2022-08-22T14:05:33.189Z,35.64
2022-08-22T14:08:40.975Z,35.50
2022-08-22T14:11:55.617Z,34.12
2022-08-22T14:15:01.002Z,33.89
2022-08-22T14:18:09.127Z,33.39
2022-08-22T14:21:29.207Z,33.37
2022-08-22T14:24:47.781Z,33.30
2022-08-22T14:28:01.488Z,31.69
2022-08-22T14:31:14.271Z,30.72
2022-08-22T14:34:16.662Z,31.96
2022-08-22T14:37:25.718Z,31.64
2022-08-22T14:40:33.474Z,31.21
2022-08-22T14:43:57.051Z,29.85
2022-08-22T14:47:15.852Z,31.67
2022-08-22T14:51:01.163Z,31.00
2022-08-22T14:54:21.589Z,30.78
2022-08-22T14:57:23.828Z,29.17
2022-08-22T15:00:38.461Z,28.42
2022-08-22T15:03:41.649Z,28.15
2022-08-22T15:06:53.637Z,27.37
2022-08-22T15:10:03.360Z,28.13
2022-08-22T15:13:10.308Z,28.75
2022-08-22T15:16:23.494Z,26.61
2022-08-22T15:19:28.119Z,27.01
2022-08-22T15:22:30.169Z,27.46
2022-08-22T15:25:41.125Z,28.16
2022-08-22T15:28:53.010Z,26.89
2022-08-22T15:37:25.873Z,26.66
2022-08-22T15:40:48.823Z,26.70
2022-08-22T15:44:14.791Z,25.27
2022-08-22T15:47:44.049Z,25.77
2022-08-22T15:50:56.814Z,24.19
2022-08-22T15:54:24.234Z,24.33
2022-08-22T15:57:42.497Z,24.37
2022-08-22T16:01:58.527Z,25.25
2022-08-22T16:05:10.692Z,26.24
2022-08-22T16:12:46.565Z,27.50
2022-08-22T16:15:52.627Z,27.43
2022-08-22T16:19:30.701Z,27.82
2022-08-22T16:22:58.030Z,28.36
2022-08-22T16:26:01.664Z,28.58
2022-08-22T16:29:27.049Z,28.60
2022-08-22T16:32:30.130Z,29.52
2022-08-22T16:36:10.320Z,30.07
2022-08-22T16:39:25.229Z,30.45
2022-08-22T16:42:41.889Z,31.04
2022-08-22T16:45:46.392Z,31.45
2022-08-22T16:49:02.502Z,31.67
2022-08-22T16:52:23.737Z,31.72
2022-08-22T16:55:34.586Z,32.28
2022-08-22T16:59:22.332Z,32.10
2022-08-22T17:02:37.889Z,32.93
2022-08-22T17:05:53.297Z,33.51
2022-08-22T17:08:58.674Z,34.35
2022-08-22T17:12:18.085Z,34.44
2022-08-22T17:15:28.981Z,34.52
2022-08-22T17:18:41.188Z,35.84
2022-08-22T17:21:57.209Z,36.33
2022-08-22T17:25:13.461Z,35.83
2022-08-22T17:28:47.813Z,36.11
2022-08-22T17:32:19.073Z,36.09
2022-08-22T17:35:45.696Z,35.50
2022-08-22T17:39:21.791Z,36.88
2022-08-22T17:42:42.435Z,37.01
2022-08-22T17:46:05.707Z,37.78
2022-08-22T17:49:19.638Z,38.90
2022-08-22T17:52:49.377Z,40.18
2022-08-22T17:55:57.823Z,40.01
2022-08-22T17:59:05.649Z,40.17
2022-08-22T18:02:33.210Z,40.74
2022-08-22T18:06:03.954Z,41.56
2022-08-22T18:09:18.678Z,40.75
2022-08-22T18:12:31.199Z,41.08
2022-08-22T18:15:54.295Z,41.29
2022-08-22T18:19:06.635Z,42.13
2022-08-22T18:22:19.154Z,41.68
2022-08-22T18:25:21.234Z,41.67
2022-08-22T18:29:04.094Z,42.79
2022-08-22T18:32:11.162Z,42.70
2022-08-22T18:35:42.201Z,43.16
2022-08-22T18:39:08.143Z,43.87
2022-08-22T18:42:24.241Z,42.78
2022-08-22T18:45:48.071Z,43.32
2022-08-22T18:49:13.980Z,43.35
2022-08-22T18:52:19.362Z,44.46
2022-08-22T18:55:46.774Z,44.34
2022-08-22T18:59:11.598Z,44.24
2022-08-22T19:02:49.240Z,44.68
2022-08-22T19:06:15.218Z,45.73
2022-08-22T19:09:41.474Z,44.89
2022-08-22T19:13:08.029Z,46.08
2022-08-22T19:16:52.221Z,46.25
2022-08-22T19:20:43.426Z,45.14
2022-08-22T19:23:49.747Z,45.45
2022-08-22T19:27:30.919Z,46.25
2022-08-22T19:30:43.015Z,46.08
2022-08-22T19:33:50.021Z,46.53
2022-08-22T19:37:30.921Z,46.56
2022-08-22T19:41:03.432Z,46.75
2022-08-22T19:44:33.958Z,46.82
2022-08-22T19:47:44.993Z,47.71
2022-08-22T19:51:20.114Z,48.03
2022-08-22T19:54:25.565Z,48.14
2022-08-22T19:57:52.862Z,48.84
2022-08-22T20:01:05.437Z,48.78
2022-08-22T20:04:21.791Z,50.07
2022-08-22T20:07:45.325Z,50.40
2022-08-22T20:11:16.864Z,50.57
2022-08-22T20:14:30.650Z,50.71
2022-08-22T20:17:43.736Z,51.34
2022-08-22T20:21:00.170Z,52.23
2022-08-22T20:24:07.846Z,52.13
2022-08-22T20:27:16.076Z,52.70
2022-08-22T20:30:25.317Z,53.83
2022-08-22T20:33:33.098Z,54.27
2022-08-22T20:36:36.232Z,54.61
2022-08-22T20:40:07.003Z,55.80
2022-08-22T20:43:37.246Z,55.89
2022-08-22T20:46:47.123Z,56.55
2022-08-22T20:50:02.518Z,56.63
2022-08-22T20:53:15.844Z,57.17
2022-08-22T20:56:39.101Z,58.62
2022-08-22T20:59:58.565Z,58.15
2022-08-22T21:03:14.338Z,58.70
2022-08-22T21:06:29.521Z,59.63
2022-08-22T21:09:51.065Z,59.59
2022-08-22T21:13:12.225Z,60.70
2022-08-22T21:16:31.465Z,60.77
2022-08-22T21:19:34.979Z,60.69
2022-08-22T21:22:38.244Z,61.14
2022-08-22T21:25:54.416Z,61.95
2022-08-22T21:29:21.870Z,62.50
2022-08-22T21:32:32.787Z,62.44
2022-08-22T21:35:38.388Z,62.70
2022-08-22T21:38:46.979Z,62.97
2022-08-22T21:41:53.099Z,63.81
2022-08-22T21:45:31.272Z,64.57
2022-08-22T21:48:46.921Z,64.23
2022-08-22T21:51:52.381Z,65.05
2022-08-22T21:54:56.152Z,64.84
2022-08-22T21:58:35.767Z,67.08
2022-08-22T22:01:42.655Z,66.03
2022-08-22T22:04:45.887Z,66.30
2022-08-22T22:07:48.405Z,66.06
2022-08-22T22:10:54.721Z,66.81
2022-08-22T22:13:58.562Z,66.78
2022-08-22T22:17:01.026Z,67.17
2022-08-22T22:20:06.316Z,67.41
2022-08-22T22:23:09.413Z,67.62
2022-08-22T22:26:12.881Z,67.97
2022-08-22T22:29:16.450Z,68.33
2022-08-22T22:32:19.059Z,68.89
2022-08-22T22:35:22.282Z,69.06
2022-08-22T22:38:26.157Z,69.25
2022-08-22T22:41:31.567Z,69.73
2022-08-22T22:44:35.013Z,69.99
2022-08-22T22:47:38.492Z,70.15
2022-08-22T22:50:46.263Z,70.94
2022-08-22T22:53:52.690Z,71.09
2022-08-22T22:56:55.719Z,70.95
2022-08-22T23:00:02.030Z,71.24
2022-08-22T23:03:06.647Z,71.77
2022-08-22T23:06:13.635Z,72.02
2022-08-22T23:09:17.060Z,72.05
2022-08-22T23:12:22.597Z,72.48
2022-08-22T23:15:25.119Z,73.01
2022-08-22T23:18:31.044Z,73.16
2022-08-22T23:21:35.577Z,73.31
2022-08-22T23:24:40.874Z,73.62
2022-08-22T23:27:44.463Z,73.91
2022-08-22T23:30:51.474Z,74.26
2022-08-22T23:33:55.075Z,74.48
2022-08-22T23:37:05.756Z,74.77
2022-08-22T23:40:11.035Z,75.02
2022-08-22T23:43:14.511Z,75.58
2022-08-22T23:46:20.331Z,75.63
2022-08-22T23:49:24.234Z,76.19
2022-08-22T23:52:28.330Z,76.54
2022-08-22T23:55:31.398Z,76.61
2022-08-22T23:58:37.606Z,76.79
